Thurles, Ireland
Current Conditions -  °F | °C
As of 9:30 PM on Wednesday 26 Nov 2014 (Local Time) from EIWF Reporting Station
Clear Clear  
Wind Chill:   Ceiling: Unl
Heat Index:   Visibility: 6mi
Dew Point:   Wind: 3mph
Humidity: 100%   Direction: 70°ENE
Pressure: 29.8"   Gusts: NA
Location:  52.68°N, 7.48°W
Report Text: EIWF 262030Z 07003KT CAVOK 00/M00 Q1009
Loading
Personal Weather Stations






























Interactive Weather Map New forecast layout! Learn more

10-Day Weather Forecast

Advertisements
Track Severe Weather on mobile